Time;durP1;ratioP1;P1;durP2;ratioP2;P2;SDS_P1;SDS_P2;PMS_P1;PMS_P2;Temp;Humidity;BMP_temperature;BMP_pressure;BME280_temperature;BME280_humidity;BME280_pressure;Samples;Min_cycle;Max_cycle;Signal;HPM_P1;HPM_P2
2022/12/22 03:26:40;;;;;;;;;;;;;;;21.44;24.84;98079.69;5116465;28;1109;-76
2022/12/22 03:29:05;;;;;;;;;;;;;;;20.97;25.62;98084.81;5116456;28;873;-76
2022/12/22 03:31:31;;;;;;;;;;;;;;;20.63;25.96;98080.31;5097914;28;1191;-76
2022/12/22 03:33:56;;;;;;;;;;;;;;;20.41;26.70;98076.31;5114899;28;922;-76
2022/12/22 03:36:22;;;;;;;;;;;;;;;21.03;25.62;98083.06;5115179;28;1246;-76
2022/12/22 03:38:47;;;;;;;;;;;;;;;21.16;25.39;98080.34;5116431;28;900;-76
2022/12/22 03:46:29;;;;;;;;;;;;;;;21.36;24.92;98077.50;5116271;28;902;-76
2022/12/22 03:46:42;;;;;;;;;;;;;;;21.19;25.16;98074.63;5116088;28;949;-76
2022/12/22 03:49:10;;;;;;;;;;;;;;;20.51;26.41;98072.50;5116501;28;942;-76
2022/12/22 03:51:43;;;;;;;;;;;;;;;20.51;26.08;98075.31;5115029;28;904;-76
2022/12/22 03:54:08;;;;;;;;;;;;;;;20.75;25.95;98068.34;5116121;28;926;-76
2022/12/22 03:56:34;;;;;;;;;;;;;;;21.02;25.71;98070.16;5097619;28;2231;-76
2022/12/22 03:58:59;;;;;;;;;;;;;;;21.24;25.52;98070.44;5115116;28;854;-76
2022/12/22 04:01:25;;;;;;;;;;;;;;;21.25;25.15;98072.84;5114895;28;956;-76
2022/12/22 04:03:50;;;;;;;;;;;;;;;21.42;24.97;98070.84;5116137;28;1901;-76
2022/12/22 04:06:16;;;;;;;;;;;;;;;21.02;25.64;98075.81;5115978;28;919;-76
2022/12/22 04:08:41;;;;;;;;;;;;;;;20.91;25.52;98069.63;5114971;28;1010;-76
2022/12/22 04:13:52;;;;;;;;;;;;;;;21.12;25.58;98069.13;5114626;28;1112;-76
2022/12/22 04:16:18;;;;;;;;;;;;;;;21.18;25.33;98081.50;5116102;28;1113;-76
2022/12/22 04:18:43;;;;;;;;;;;;;;;21.27;25.26;98073.19;5115931;28;863;-76
2022/12/22 04:21:09;;;;;;;;;;;;;;;20.88;25.59;98073.31;5115669;28;963;-76
2022/12/22 04:23:34;;;;;;;;;;;;;;;20.95;25.57;98076.00;5115816;28;1974;-76
2022/12/22 04:25:59;;;;;;;;;;;;;;;20.94;25.75;98074.41;5115883;28;917;-75
2022/12/22 04:28:25;;;;;;;;;;;;;;;21.02;25.52;98070.16;5115451;28;1086;-76
2022/12/22 04:30:50;;;;;;;;;;;;;;;21.28;25.50;98071.94;5114626;28;1452;-76
2022/12/22 04:33:16;;;;;;;;;;;;;;;21.39;25.10;98076.59;5118231;28;921;-76
2022/12/22 04:35:41;;;;;;;;;;;;;;;21.09;25.32;98072.84;5120049;28;842;-76
2022/12/22 04:38:07;;;;;;;;;;;;;;;20.86;26.00;98070.13;5118245;28;958;-76
2022/12/22 04:40:32;;;;;;;;;;;;;;;20.71;25.91;98073.28;5119727;28;905;-76
2022/12/22 04:42:58;;;;;;;;;;;;;;;20.99;25.61;98073.88;5118457;28;1973;-75
2022/12/22 04:45:23;;;;;;;;;;;;;;;20.94;25.79;98063.09;5119348;28;976;-76
2022/12/22 04:47:48;;;;;;;;;;;;;;;21.18;25.55;98067.34;5119718;28;1016;-76
2022/12/22 04:50:15;;;;;;;;;;;;;;;21.31;25.16;98065.47;5119402;28;1026;-76
2022/12/22 04:52:40;;;;;;;;;;;;;;;21.05;25.46;98061.59;5119114;28;973;-76
2022/12/22 04:55:06;;;;;;;;;;;;;;;20.62;26.10;98063.78;5119501;28;931;-76
2022/12/22 04:57:31;;;;;;;;;;;;;;;20.60;26.31;98061.41;5119012;27;953;-76
2022/12/22 04:59:57;;;;;;;;;;;;;;;21.03;25.59;98061.22;5119519;28;927;-76
2022/12/22 05:02:22;;;;;;;;;;;;;;;21.25;25.19;98061.53;5119017;28;869;-76
2022/12/22 05:04:48;;;;;;;;;;;;;;;21.07;25.45;98055.50;5119076;28;1974;-76
2022/12/22 05:07:13;;;;;;;;;;;;;;;21.27;25.50;98069.56;5119027;28;962;-76
2022/12/22 05:09:39;;;;;;;;;;;;;;;21.05;25.61;98069.28;5119007;28;1004;-76
2022/12/22 05:12:53;;;;;;;;;;;;;;;20.73;26.26;98056.69;5118511;28;1034;-76
2022/12/22 05:14:49;;;;;;;;;;;;;;;20.49;26.27;98060.84;5114732;28;1148;-76
2022/12/22 05:17:15;;;;;;;;;;;;;;;20.99;25.63;98065.41;5105299;28;1220;-76
2022/12/22 05:19:40;;;;;;;;;;;;;;;20.99;25.88;98065.41;5109222;28;1188;-76
2022/12/22 05:22:06;;;;;;;;;;;;;;;21.12;25.71;98071.16;5107293;28;1377;-76
2022/12/22 05:24:31;;;;;;;;;;;;;;;21.19;25.56;98068.97;5108593;28;1977;-76
2022/12/22 05:26:57;;;;;;;;;;;;;;;21.22;25.40;98068.06;5108511;28;1486;-76
2022/12/22 05:29:22;;;;;;;;;;;;;;;20.71;26.04;98067.63;5106774;28;1200;-76
2022/12/22 05:31:48;;;;;;;;;;;;;;;20.61;26.22;98074.28;5108895;28;1232;-76
2022/12/22 05:34:13;;;;;;;;;;;;;;;20.57;26.32;98078.44;5088460;28;1291;-76
2022/12/22 05:36:39;;;;;;;;;;;;;;;20.86;25.95;98073.75;5107377;28;1215;-76
2022/12/22 05:39:04;;;;;;;;;;;;;;;21.04;25.40;98074.16;5109052;28;1274;-76
2022/12/22 05:41:29;;;;;;;;;;;;;;;21.19;25.38;98074.63;5111169;28;1211;-76
2022/12/22 05:43:55;;;;;;;;;;;;;;;21.35;25.37;98079.53;5118580;28;1898;-76
2022/12/22 05:46:22;;;;;;;;;;;;;;;21.35;25.21;98075.88;5117213;28;957;-76
2022/12/22 05:48:47;;;;;;;;;;;;;;;20.80;25.82;98076.31;5100342;28;944;-76
2022/12/22 05:51:13;;;;;;;;;;;;;;;20.68;25.91;98082.66;5118453;28;1061;-76
2022/12/22 05:53:38;;;;;;;;;;;;;;;20.89;26.01;98083.41;5118315;28;903;-76
2022/12/22 05:56:04;;;;;;;;;;;;;;;20.92;25.70;98088.16;5116676;28;1186;-76
2022/12/22 05:58:30;;;;;;;;;;;;;;;21.25;25.21;98080.56;5117971;28;1109;-76
2022/12/22 06:00:56;;;;;;;;;;;;;;;21.44;25.00;98084.56;5118556;28;919;-76
2022/12/22 06:03:22;;;;;;;;;;;;;;;21.39;25.06;98083.03;5118422;28;1898;-76
2022/12/22 06:05:48;;;;;;;;;;;;;;;20.78;25.74;98078.78;5117052;28;961;-76
2022/12/22 06:08:14;;;;;;;;;;;;;;;20.63;25.93;98082.38;5116395;28;1070;-76
2022/12/22 06:10:39;;;;;;;;;;;;;;;20.87;26.02;98097.97;5098340;28;932;-76
2022/12/22 06:13:05;;;;;;;;;;;;;;;21.05;25.47;98091.94;5117725;28;995;-76
2022/12/22 06:15:30;;;;;;;;;;;;;;;21.17;25.51;98102.53;5117916;28;899;-76
2022/12/22 06:17:55;;;;;;;;;;;;;;;21.24;25.21;98104.41;5117666;28;902;-76
2022/12/22 06:20:21;;;;;;;;;;;;;;;21.36;25.01;98103.75;5116691;28;893;-76
2022/12/22 06:22:46;;;;;;;;;;;;;;;20.81;25.67;98100.53;5116368;28;1898;-76
2022/12/22 06:25:12;;;;;;;;;;;;;;;20.62;26.13;98109.81;5116412;28;930;-76
2022/12/22 06:27:37;;;;;;;;;;;;;;;20.63;26.20;98111.44;5117649;28;887;-76
2022/12/22 06:30:03;;;;;;;;;;;;;;;21.07;25.85;98106.41;5117695;28;1135;-76
2022/12/22 06:32:28;;;;;;;;;;;;;;;21.47;25.13;98109.16;5081176;28;1266;-77
2022/12/22 06:34:53;;;;;;;;;;;;;;;21.22;25.25;98107.69;5116225;28;1023;-76
2022/12/22 06:37:19;;;;;;;;;;;;;;;21.14;25.24;98109.09;5117152;28;899;-75
2022/12/22 06:39:44;;;;;;;;;;;;;;;20.86;25.65;98106.91;5117197;28;880;-76
2022/12/22 06:44:54;;;;;;;;;;;;;;;20.86;26.01;98112.56;5117049;28;1909;-76
2022/12/22 06:47:19;;;;;;;;;;;;;;;20.98;25.82;98117.53;5117281;28;1109;-76
2022/12/22 06:49:45;;;;;;;;;;;;;;;21.08;25.47;98113.66;5117054;28;1054;-76
2022/12/22 06:52:10;;;;;;;;;;;;;;;21.21;25.73;98111.75;5117094;28;895;-75
2022/12/22 06:54:36;;;;;;;;;;;;;;;21.14;25.43;98117.59;5115549;28;1204;-76
2022/12/22 06:57:01;;;;;;;;;;;;;;;20.95;25.56;98115.59;5116850;28;968;-76
2022/12/22 06:59:27;;;;;;;;;;;;;;;20.68;26.01;98108.09;5117193;28;850;-76
2022/12/22 07:01:52;;;;;;;;;;;;;;;20.54;26.32;98108.38;5116812;28;924;-76
2022/12/22 07:04:20;;;;;;;;;;;;;;;21.11;25.40;98118.47;5116886;28;1981;-76
2022/12/22 07:06:48;;;;;;;;;;;;;;;21.11;25.30;98117.66;5116660;28;927;-76
2022/12/22 07:09:13;;;;;;;;;;;;;;;21.19;25.49;98119.91;5116928;28;908;-75
2022/12/22 07:11:39;;;;;;;;;;;;;;;21.19;25.48;98117.06;5116637;28;1030;-76
2022/12/22 07:14:04;;;;;;;;;;;;;;;21.22;25.34;98113.34;5114607;28;1027;-74
2022/12/22 07:16:30;;;;;;;;;;;;;;;20.86;25.87;98123.88;5116021;28;1178;-74
2022/12/22 07:18:55;;;;;;;;;;;;;;;20.68;26.02;98130.72;5104720;28;1306;-76
2022/12/22 07:21:21;;;;;;;;;;;;;;;20.89;26.06;98128.66;5105135;28;1243;-75
2022/12/22 07:23:46;;;;;;;;;;;;;;;20.98;25.85;98131.66;5106252;28;1902;-75
2022/12/22 07:26:12;;;;;;;;;;;;;;;21.21;25.49;98134.41;5107481;28;1199;-75
2022/12/22 07:28:37;;;;;;;;;;;;;;;21.44;25.02;98136.31;5103561;28;1161;-75
2022/12/22 07:31:03;;;;;;;;;;;;;;;21.30;25.37;98131.00;5104751;28;1178;-75
2022/12/22 07:33:29;;;;;;;;;;;;;;;20.81;26.14;98139.31;5105013;28;1271;-75
2022/12/22 07:36:20;;;;;;;;;;;;;;;20.84;26.03;98132.81;5065826;28;1294;-75
2022/12/22 07:38:47;;;;;;;;;;;;;;;20.79;26.26;98133.31;5032460;28;1481;-75
2022/12/22 07:43:59;;;;;;;;;;;;;;;21.43;24.96;98131.09;5028543;28;2038;-75
2022/12/22 07:46:25;;;;;;;;;;;;;;;21.42;25.00;98132.34;5032702;28;1174;-76
2022/12/22 07:51:35;;;;;;;;;;;;;;;21.10;25.60;98145.16;5031497;28;1320;-76
2022/12/22 07:54:00;;;;;;;;;;;;;;;20.76;25.88;98137.78;5032738;28;1283;-76
2022/12/22 07:56:26;;;;;;;;;;;;;;;20.57;26.25;98141.41;5032136;28;1206;-75
2022/12/22 07:58:51;;;;;;;;;;;;;;;21.02;25.68;98133.19;5032320;28;1210;-76
2022/12/22 08:01:16;;;;;;;;;;;;;;;21.12;25.54;98139.06;5032300;28;1324;-76
2022/12/22 08:03:42;;;;;;;;;;;;;;;21.36;25.37;98131.28;5032498;28;1984;-76
2022/12/22 08:06:07;;;;;;;;;;;;;;;21.31;25.40;98133.38;5039474;28;1245;-76
2022/12/22 08:08:33;;;;;;;;;;;;;;;21.03;25.48;98136.81;5075612;28;1272;-76
2022/12/22 08:11:00;;;;;;;;;;;;;;;20.80;25.95;98141.34;5077223;28;936;-76
2022/12/22 08:13:26;;;;;;;;;;;;;;;20.46;26.63;98135.16;5076370;28;1237;-76
2022/12/22 08:15:51;;;;;;;;;;;;;;;20.94;25.75;98142.28;5098689;28;1384;-76
2022/12/22 08:18:17;;;;;;;;;;;;;;;21.05;25.87;98135.16;5110794;28;1054;-76
2022/12/22 08:20:47;;;;;;;;;;;;;;;21.36;25.28;98129.22;5109370;28;1247;-76
2022/12/22 08:23:12;;;;;;;;;;;;;;;21.39;25.34;98131.16;5106755;28;1965;-76
2022/12/22 08:25:38;;;;;;;;;;;;;;;21.25;25.28;98123.00;5108659;28;1208;-76
2022/12/22 08:28:03;;;;;;;;;;;;;;;20.99;25.88;98114.28;5108495;28;1212;-76
2022/12/22 08:30:29;;;;;;;;;;;;;;;20.53;26.72;98106.78;5109859;28;1489;-76
2022/12/22 08:32:54;;;;;;;;;;;;;;;20.94;26.02;98109.16;5088870;28;1276;-76
2022/12/22 08:35:20;;;;;;;;;;;;;;;21.08;25.87;98108.00;5109009;28;1217;-76
2022/12/22 08:37:45;;;;;;;;;;;;;;;21.43;25.42;98111.28;5108792;28;1251;-76
2022/12/22 08:40:15;;;;;;;;;;;;;;;21.00;25.56;98113.03;5106883;28;1231;-76
2022/12/22 08:42:41;;;;;;;;;;;;;;;20.52;26.35;98097.53;5107904;28;1898;-75
2022/12/22 08:45:08;;;;;;;;;;;;;;;20.56;26.60;98100.25;5107535;28;1389;-76
2022/12/22 08:47:33;;;;;;;;;;;;;;;20.84;26.22;98100.91;5110050;28;1227;-76
2022/12/22 08:49:59;;;;;;;;;;;;;;;21.24;25.66;98093.91;5107032;28;1192;-76
2022/12/22 08:52:24;;;;;;;;;;;;;;;21.49;24.92;98086.84;5109076;28;1243;-76
2022/12/22 08:54:49;;;;;;;;;;;;;;;21.32;25.20;98083.22;5109411;28;1231;-76
2022/12/22 08:57:15;;;;;;;;;;;;;;;21.13;25.29;98087.69;5107447;28;1198;-76
2022/12/22 08:59:40;;;;;;;;;;;;;;;20.66;26.08;98082.25;5110763;28;1219;-76
2022/12/22 09:02:06;;;;;;;;;;;;;;;20.56;26.63;98088.94;5108244;28;1318;-76
2022/12/22 09:04:32;;;;;;;;;;;;;;;20.90;25.97;98090.66;5109361;28;1918;-75
2022/12/22 09:06:57;;;;;;;;;;;;;;;21.30;25.45;98091.38;5106468;28;1394;-75
2022/12/22 09:09:22;;;;;;;;;;;;;;;21.33;25.28;98091.28;5107434;28;1255;-75
2022/12/22 09:11:48;;;;;;;;;;;;;;;21.04;25.59;98085.47;5108796;28;1172;-75
2022/12/22 09:14:14;;;;;;;;;;;;;;;20.71;26.27;98078.13;5106141;28;1204;-75
2022/12/22 09:16:39;;;;;;;;;;;;;;;20.68;26.20;98074.16;5108916;28;1271;-75
2022/12/22 09:19:05;;;;;;;;;;;;;;;20.98;25.75;98069.44;5107946;28;1199;-75
2022/12/22 09:21:31;;;;;;;;;;;;;;;21.20;25.42;98070.56;5115911;28;1278;-75
2022/12/22 09:23:56;;;;;;;;;;;;;;;21.46;25.26;98062.28;5099539;28;1909;-75
2022/12/22 09:26:22;;;;;;;;;;;;;;;21.22;25.45;98068.06;5117254;28;959;-75
2022/12/22 09:28:48;;;;;;;;;;;;;;;20.85;25.86;98066.50;5118745;28;922;-74
2022/12/22 09:31:13;;;;;;;;;;;;;;;20.69;26.07;98058.78;5117821;28;917;-75
2022/12/22 09:33:38;;;;;;;;;;;;;;;21.00;25.74;98064.16;5118677;28;925;-75
2022/12/22 09:36:08;;;;;;;;;;;;;;;21.19;25.57;98057.66;5118811;28;1181;-75
2022/12/22 09:38:35;;;;;;;;;;;;;;;21.30;25.50;98063.88;5118446;28;956;-74
2022/12/22 09:41:07;;;;;;;;;;;;;;;21.27;25.46;98050.56;5118249;28;1173;-74
2022/12/22 09:43:33;;;;;;;;;;;;;;;21.62;24.74;98039.63;5117204;28;1986;-75
2022/12/22 09:45:58;;;;;;;;;;;;;;;20.98;25.63;98052.47;5117371;28;911;-75
2022/12/22 09:48:24;;;;;;;;;;;;;;;20.65;26.30;98046.75;5117116;28;1031;-75
2022/12/22 09:50:49;;;;;;;;;;;;;;;20.87;26.06;98047.06;5117244;28;901;-75
2022/12/22 09:53:19;;;;;;;;;;;;;;;21.07;25.67;98052.66;5118102;28;1244;-75
2022/12/22 09:55:46;;;;;;;;;;;;;;;21.13;25.53;98033.13;5074958;28;983;-75
2022/12/22 09:58:27;;;;;;;;;;;;;;;21.28;25.66;98042.88;5074908;28;1461;-77
2022/12/22 10:00:56;;;;;;;;;;;;;;;21.01;25.87;98038.25;5049015;28;1233;-75
2022/12/22 10:03:24;;;;;;;;;;;;;;;20.55;26.50;98036.47;5047597;28;1973;-75
2022/12/22 10:05:53;;;;;;;;;;;;;;;20.71;26.44;98035.72;5063720;28;1287;-75
2022/12/22 10:08:20;;;;;;;;;;;;;;;21.02;26.07;98041.88;5049586;28;1182;-75
2022/12/22 10:10:46;;;;;;;;;;;;;;;21.27;25.61;98036.41;5064139;28;1368;-75
2022/12/22 10:13:15;;;;;;;;;;;;;;;21.22;25.74;98028.44;5062422;28;1297;-75
2022/12/22 10:15:41;;;;;;;;;;;;;;;21.24;25.66;98022.34;5057290;28;1308;-75
2022/12/22 10:18:08;;;;;;;;;;;;;;;20.73;26.16;98019.91;5062418;28;1988;-75
2022/12/22 10:20:33;;;;;;;;;;;;;;;20.53;26.69;98016.34;5066816;28;1051;-75
2022/12/22 10:23:22;;;;;;;;;;;;;;;20.81;26.35;98012.84;5064969;28;1972;-75
2022/12/22 10:25:53;;;;;;;;;;;;;;;20.94;25.97;98012.19;5052838;28;1388;-74
2022/12/22 10:28:20;;;;;;;;;;;;;;;21.38;25.29;98007.06;5107621;28;1224;-74
2022/12/22 10:30:45;;;;;;;;;;;;;;;21.46;25.17;98002.84;5103860;28;1303;-75
2022/12/22 10:33:14;;;;;;;;;;;;;;;21.05;25.61;98001.41;5107299;28;1244;-75
2022/12/22 10:35:43;;;;;;;;;;;;;;;20.71;26.11;97993.31;5107948;28;1531;-75
2022/12/22 10:38:27;;;;;;;;;;;;;;;20.54;26.80;97990.44;5105810;28;1181;-75
2022/12/22 10:40:57;;;;;;;;;;;;;;;20.94;26.03;97983.91;5103726;28;1209;-75
2022/12/22 10:43:23;;;;;;;;;;;;;;;21.10;25.97;97991.59;5106298;28;1902;-74
2022/12/22 10:45:49;;;;;;;;;;;;;;;21.36;25.37;97984.09;5104689;28;1152;-75
2022/12/22 10:48:14;;;;;;;;;;;;;;;21.15;25.73;97977.72;5106345;28;1123;-75
2022/12/22 10:50:44;;;;;;;;;;;;;;;20.71;26.44;97977.13;5111755;28;1208;-75
2022/12/22 10:53:10;;;;;;;;;;;;;;;20.73;26.24;97973.88;5106100;28;1252;-75
2022/12/22 10:55:37;;;;;;;;;;;;;;;21.11;25.93;97970.53;5105494;28;1215;-75
2022/12/22 10:58:09;;;;;;;;;;;;;;;21.21;25.70;97970.28;5087934;28;1204;-75
2022/12/22 11:00:35;;;;;;;;;;;;;;;21.06;25.85;97975.50;5104415;28;1271;-75
2022/12/22 11:03:01;;;;;;;;;;;;;;;21.31;25.71;97969.22;5096575;28;1879;-75
2022/12/22 11:05:26;;;;;;;;;;;;;;;21.25;25.38;97961.69;5096325;28;965;-75
2022/12/22 11:07:52;;;;;;;;;;;;;;;20.87;25.98;97967.88;5095533;28;832;-75
2022/12/22 11:10:17;;;;;;;;;;;;;;;20.65;26.39;97961.13;5095082;28;898;-75
2022/12/22 11:12:49;;;;;;;;;;;;;;;20.54;26.85;97955.75;5103860;28;1108;-75
2022/12/22 11:15:30;;;;;;;;;;;;;;;21.04;26.01;97951.72;5106690;28;1264;-75
2022/12/22 11:18:01;;;;;;;;;;;;;;;21.28;25.48;97958.75;5106795;28;1109;-75
2022/12/22 11:20:36;;;;;;;;;;;;;;;21.36;25.35;97958.63;5105554;28;1229;-75
2022/12/22 11:23:01;;;;;;;;;;;;;;;21.29;25.39;97957.50;5104630;28;1902;-75
2022/12/22 11:25:50;;;;;;;;;;;;;;;21.03;25.84;97947.28;5106757;28;1211;-75
2022/12/22 11:28:25;;;;;;;;;;;;;;;20.69;26.35;97947.72;5106664;28;1140;-75
2022/12/22 11:30:50;;;;;;;;;;;;;;;20.54;26.88;97958.56;5105588;28;1196;-75
2022/12/22 11:33:25;;;;;;;;;;;;;;;21.04;25.86;97954.56;5097299;28;1254;-75
2022/12/22 11:35:56;;;;;;;;;;;;;;;21.26;25.66;97944.25;5095079;28;997;-75
2022/12/22 11:38:41;;;;;;;;;;;;;;;21.53;25.50;97943.97;5096231;28;860;-75
2022/12/22 11:41:12;;;;;;;;;;;;;;;21.21;25.47;97941.97;5095782;28;964;-74
2022/12/22 11:43:53;;;;;;;;;;;;;;;20.74;26.25;97936.69;5095882;28;1961;-75
2022/12/22 11:46:18;;;;;;;;;;;;;;;20.61;26.71;97930.13;5095720;28;894;-75
2022/12/22 11:48:50;;;;;;;;;;;;;;;20.86;26.26;97926.69;5095979;28;997;-75
2022/12/22 11:51:34;;;;;;;;;;;;;;;20.95;26.05;97929.69;5095492;28;1017;-75
2022/12/22 11:54:03;;;;;;;;;;;;;;;21.17;25.77;97918.63;5095891;28;903;-75
2022/12/22 11:56:32;;;;;;;;;;;;;;;21.29;25.61;97915.06;5095575;28;905;-74
2022/12/22 11:59:13;;;;;;;;;;;;;;;20.97;25.92;97920.75;5095625;28;1102;-75
2022/12/22 12:01:43;;;;;;;;;;;;;;;20.89;26.21;97919.38;5095869;28;893;-76
2022/12/22 12:04:11;;;;;;;;;;;;;;;20.58;26.74;97922.53;5088897;28;1910;-77
2022/12/22 12:06:47;;;;;;;;;;;;;;;20.80;26.69;97917.94;5105671;28;1196;-77
2022/12/22 12:09:16;;;;;;;;;;;;;;;21.04;26.42;97915.75;5086407;28;1313;-76
2022/12/22 12:12:18;;;;;;;;;;;;;;;21.29;25.80;97917.88;5086519;28;1500;-76
2022/12/22 12:14:49;;;;;;;;;;;;;;;20.93;26.21;97911.56;5002465;28;1186;-77
2022/12/22 12:17:37;;;;;;;;;;;;;;;20.85;26.73;97922.28;5013336;28;1018;-77
2022/12/22 12:20:06;;;;;;;;;;;;;;;20.49;27.11;97913.88;4996846;28;941;-77
2022/12/22 12:22:34;;;;;;;;;;;;;;;20.99;26.51;97913.44;4996912;28;1102;-77
2022/12/22 12:25:00;;;;;;;;;;;;;;;21.18;26.31;97914.56;5013157;28;1902;-77
2022/12/22 12:27:35;;;;;;;;;;;;;;;21.30;25.84;97915.91;5013409;28;1004;-77
2022/12/22 12:30:19;;;;;;;;;;;;;;;21.46;25.67;97924.38;4996780;28;1042;-77
2022/12/22 12:33:01;;;;;;;;;;;;;;;20.94;26.65;97921.66;4996687;28;1038;-77
2022/12/22 12:35:39;;;;;;;;;;;;;;;20.65;26.81;97916.69;5012905;28;1051;-77
2022/12/22 12:38:06;;;;;;;;;;;;;;;20.53;27.22;97926.69;5012643;28;1023;-77
2022/12/22 12:40:49;;;;;;;;;;;;;;;20.93;26.55;97922.88;4996779;28;1015;-77
2022/12/22 12:43:14;;;;;;;;;;;;;;;21.00;26.55;97926.34;5012731;28;1898;-77
2022/12/22 12:45:41;;;;;;;;;;;;;;;21.29;25.87;97920.72;5006079;28;1658;-71
2022/12/22 12:48:18;;;;;;;;;;;;;;;21.82;25.33;97929.03;5032951;28;2110;-72
2022/12/22 12:50:44;;;;;;;;;;;;;;;21.72;26.16;97919.59;5103197;28;2038;-72
2022/12/22 12:53:10;;;;;;;;;;;;;;;21.74;26.05;97922.75;5125875;27;1919;-72
2022/12/22 12:55:55;;;;;;;;;;;;;;;21.67;26.30;97911.66;5125505;27;1843;-73
2022/12/22 12:58:51;;;;;;;;;;;;;;;21.69;26.98;97923.31;5041178;28;2163;-72
2022/12/22 13:01:17;;;;;;;;;;;;;;;21.52;27.66;97916.13;4992322;28;1317;-71
2022/12/22 13:03:42;;;;;;;;;;;;;;;21.46;28.19;97920.75;4996640;28;1914;-70
2022/12/22 13:06:08;;;;;;;;;;;;;;;21.61;28.42;97913.44;4989640;28;1601;-70
2022/12/22 13:08:55;;;;;;;;;;;;;;;21.54;28.67;97913.63;4996606;28;1023;-71
2022/12/22 13:11:28;;;;;;;;;;;;;;;21.44;29.00;97917.53;4977018;28;999;-76
2022/12/22 13:13:55;;;;;;;;;;;;;;;20.97;29.44;97915.09;4960799;28;1049;-76
2022/12/22 13:16:20;;;;;;;;;;;;;;;20.69;29.68;97911.75;4977358;28;986;-76
2022/12/22 13:18:46;;;;;;;;;;;;;;;20.85;29.73;97918.66;4944993;28;1051;-76
2022/12/22 13:21:12;;;;;;;;;;;;;;;21.02;29.07;97917.41;4960971;28;1004;-76
2022/12/22 13:23:39;;;;;;;;;;;;;;;21.13;29.02;97917.91;4960851;28;1907;-76
2022/12/22 13:26:14;;;;;;;;;;;;;;;21.25;28.44;97908.72;4960925;28;945;-76
2022/12/22 13:28:41;;;;;;;;;;;;;;;21.14;28.31;97918.72;4960483;28;1056;-74
2022/12/22 13:31:39;;;;;;;;;;;;;;;20.98;28.52;97913.88;4960668;28;1035;-75
2022/12/22 13:34:23;;;;;;;;;;;;;;;20.65;29.31;97910.25;4938386;29;1048;-74
2022/12/22 13:36:49;;;;;;;;;;;;;;;20.90;28.74;97915.31;4982697;28;1146;-74
2022/12/22 13:39:15;;;;;;;;;;;;;;;21.13;28.19;97917.91;4999611;28;961;-74
2022/12/22 13:41:41;;;;;;;;;;;;;;;21.30;28.13;97925.19;4999685;28;1073;-74
2022/12/22 13:44:06;;;;;;;;;;;;;;;21.58;27.45;97914.31;4999312;28;1983;-74
2022/12/22 13:46:33;;;;;;;;;;;;;;;21.10;27.76;97913.16;5015900;28;1026;-73
2022/12/22 13:48:59;;;;;;;;;;;;;;;21.02;27.94;97915.38;4999631;28;962;-74
2022/12/22 13:51:27;;;;;;;;;;;;;;;20.92;28.34;97913.59;5015743;28;935;-74
2022/12/22 13:54:00;;;;;;;;;;;;;;;21.12;27.82;97909.88;4999005;28;998;-75
2022/12/22 13:56:26;;;;;;;;;;;;;;;21.22;27.59;97908.81;4999291;28;1039;-74
2022/12/22 13:58:58;;;;;;;;;;;;;;;21.44;27.31;97904.19;4999232;28;942;-75
2022/12/22 14:01:23;;;;;;;;;;;;;;;21.08;27.58;97893.00;4998868;28;1339;-75
2022/12/22 14:03:50;;;;;;;;;;;;;;;20.68;28.26;97898.88;4999042;28;2000;-74
2022/12/22 14:06:34;;;;;;;;;;;;;;;20.59;28.37;97901.50;4998942;28;941;-74
2022/12/22 14:09:10;;;;;;;;;;;;;;;20.53;27.70;97829.78;5034010;28;1072;-74
2022/12/22 14:11:35;;;;;;;;;;;;;;;21.20;27.45;97906.44;5096822;28;902;-74
2022/12/22 14:14:05;;;;;;;;;;;;;;;21.22;27.31;97906.78;5097965;28;1059;-74
2022/12/22 14:16:30;;;;;;;;;;;;;;;21.41;27.09;97892.97;5097852;28;943;-74
2022/12/22 14:18:56;;;;;;;;;;;;;;;20.91;27.67;97912.03;5097206;28;1003;-74
2022/12/22 14:21:21;;;;;;;;;;;;;;;20.71;28.05;97900.00;5096244;28;945;-74
2022/12/22 14:23:47;;;;;;;;;;;;;;;20.96;28.00;97902.22;5097210;28;1913;-74
2022/12/22 14:26:16;;;;;;;;;;;;;;;21.03;27.62;97899.19;5096494;28;913;-74
2022/12/22 14:28:49;;;;;;;;;;;;;;;21.21;27.28;97896.69;5096116;28;1019;-74
2022/12/22 14:31:14;;;;;;;;;;;;;;;21.29;27.22;97903.75;5096046;28;913;-74
2022/12/22 14:33:48;;;;;;;;;;;;;;;21.23;27.14;97899.88;5096518;28;965;-74
2022/12/22 14:36:15;;;;;;;;;;;;;;;20.91;27.60;97895.06;5095892;28;872;-74
2022/12/22 14:38:46;;;;;;;;;;;;;;;20.65;27.94;97904.59;5097138;28;911;-74
2022/12/22 14:41:40;;;;;;;;;;;;;;;21.01;27.58;97905.28;5054077;28;1300;-74
2022/12/22 14:44:02;;;;;;;;;;;;;;;21.00;27.51;97891.59;5054120;28;1918;-74
2022/12/22 14:46:27;;;;;;;;;;;;;;;21.28;27.04;97893.66;5054258;28;1128;-74
2022/12/22 14:48:52;;;;;;;;;;;;;;;21.32;26.85;97891.56;5054323;28;1000;-75
2022/12/22 14:51:18;;;;;;;;;;;;;;;20.89;27.58;97886.22;5053938;28;958;-74
2022/12/22 14:53:44;;;;;;;;;;;;;;;20.75;27.56;97887.38;5053993;28;1025;-74
2022/12/22 14:56:10;;;;;;;;;;;;;;;20.79;27.84;97893.75;5054582;28;1167;-74
2022/12/22 14:58:37;;;;;;;;;;;;;;;20.99;27.60;97890.81;5054563;28;1012;-74
2022/12/22 15:01:16;;;;;;;;;;;;;;;21.26;26.94;97893.34;5054235;28;975;-74
2022/12/22 15:03:41;;;;;;;;;;;;;;;21.29;26.83;97886.75;5053932;28;1986;-74
2022/12/22 15:06:25;;;;;;;;;;;;;;;20.91;27.30;97882.94;5037068;28;1199;-74
2022/12/22 15:08:53;;;;;;;;;;;;;;;20.72;27.61;97882.59;5053720;28;1002;-74
2022/12/22 15:11:19;;;;;;;;;;;;;;;20.75;27.70;97886.56;5059946;28;1033;-74
2022/12/22 15:13:45;;;;;;;;;;;;;;;21.11;27.14;97896.97;5095376;28;1086;-74
2022/12/22 15:16:14;;;;;;;;;;;;;;;21.14;27.00;97894.06;5095910;28;889;-74
2022/12/22 15:18:39;;;;;;;;;;;;;;;21.22;26.84;97892.63;5053150;28;1041;-74
2022/12/22 15:21:05;;;;;;;;;;;;;;;21.48;26.62;97887.09;5053770;28;924;-74
2022/12/22 15:23:30;;;;;;;;;;;;;;;21.13;26.88;97895.28;5053228;28;1906;-74
2022/12/22 15:25:56;;;;;;;;;;;;;;;20.66;27.58;97895.66;5053675;28;985;-74
2022/12/22 15:28:22;;;;;;;;;;;;;;;20.79;27.81;97890.13;5053245;28;962;-74
2022/12/22 15:30:47;;;;;;;;;;;;;;;21.10;26.88;97896.19;5053627;28;1011;-74
2022/12/22 15:33:14;;;;;;;;;;;;;;;21.43;26.68;97901.81;5036452;28;953;-74
2022/12/22 15:35:39;;;;;;;;;;;;;;;21.40;26.49;97897.03;5053480;28;1158;-74
2022/12/22 15:38:05;;;;;;;;;;;;;;;21.14;26.84;97902.56;5053167;28;956;-74
2022/12/22 15:40:30;;;;;;;;;;;;;;;20.94;27.05;97893.38;5053430;28;945;-76
2022/12/22 15:42:56;;;;;;;;;;;;;;;20.87;27.23;97893.53;5053090;28;1051;-75
2022/12/22 15:45:21;;;;;;;;;;;;;;;21.19;26.76;97893.53;5052841;28;999;-74
2022/12/22 15:47:50;;;;;;;;;;;;;;;21.22;26.69;97892.63;5052908;28;931;-75
2022/12/22 15:50:19;;;;;;;;;;;;;;;21.25;27.02;97896.63;5068162;28;923;-75
2022/12/22 15:52:46;;;;;;;;;;;;;;;21.21;26.91;97901.56;5056388;28;919;-75
2022/12/22 15:55:13;;;;;;;;;;;;;;;20.91;26.99;97899.91;5056464;28;983;-75
2022/12/22 15:57:38;;;;;;;;;;;;;;;20.79;27.58;97892.94;5056655;28;1015;-75
2022/12/22 16:00:04;;;;;;;;;;;;;;;20.84;27.42;97894.44;5055996;28;1122;-75
2022/12/22 16:02:29;;;;;;;;;;;;;;;21.39;26.56;97901.09;5055868;28;958;-75
2022/12/22 16:04:55;;;;;;;;;;;;;;;21.29;26.52;97902.94;5072647;28;1906;-75
2022/12/22 16:07:20;;;;;;;;;;;;;;;21.30;26.64;97905.38;5072719;28;968;-75
2022/12/22 16:09:46;;;;;;;;;;;;;;;21.42;26.45;97900.22;5072940;28;979;-75
2022/12/22 16:12:15;;;;;;;;;;;;;;;21.37;26.25;97903.59;5072667;28;786;-74
2022/12/22 16:14:41;;;;;;;;;;;;;;;21.06;27.01;97901.13;5055669;28;1182;-75
2022/12/22 16:17:10;;;;;;;;;;;;;;;20.83;27.09;97902.16;5055992;28;989;-75
2022/12/22 16:19:35;;;;;;;;;;;;;;;21.08;26.76;97907.13;5056273;28;975;-75
2022/12/22 16:22:01;;;;;;;;;;;;;;;21.22;26.53;97906.78;5090980;28;912;-75
2022/12/22 16:24:27;;;;;;;;;;;;;;;21.38;26.28;97908.81;5077425;28;1979;-75
2022/12/22 16:26:55;;;;;;;;;;;;;;;21.09;26.61;97905.94;5077311;28;964;-75
2022/12/22 16:29:21;;;;;;;;;;;;;;;20.76;27.11;97905.91;5079842;28;895;-75
2022/12/22 16:31:48;;;;;;;;;;;;;;;20.64;27.40;97900.97;5098257;28;1015;-75
2022/12/22 16:34:13;;;;;;;;;;;;;;;21.23;26.64;97904.72;5097967;28;813;-75
2022/12/22 16:36:39;;;;;;;;;;;;;;;21.14;26.58;97908.22;5098346;28;826;-75
2022/12/22 16:39:04;;;;;;;;;;;;;;;21.30;26.52;97905.38;5099243;28;911;-75
2022/12/22 16:41:30;;;;;;;;;;;;;;;21.44;26.35;97898.53;5097935;28;971;-75
2022/12/22 16:43:55;;;;;;;;;;;;;;;20.94;26.79;97887.72;5098787;28;1913;-75